Time;durP1;ratioP1;P1;durP2;ratioP2;P2;SDS_P1;SDS_P2;PMS_P1;PMS_P2;Temp;Humidity;BMP_temperature;BMP_pressure;BME280_temperature;BME280_humidity;BME280_pressure;Samples;Min_cycle;Max_cycle;Signal;HPM_P1;HPM_P2
2024/01/25 00:02:23;;;;;;;;;;;10.80;99.90;;;;;;7335879;19;108780;-90
2024/01/25 00:04:50;;;;;;;;;;;10.80;99.90;;;;;;7335296;19;110042;-90
2024/01/25 00:07:17;;;;;;;;;;;10.80;99.90;;;;;;7337098;19;109762;-90
2024/01/25 00:09:44;;;;;;;;;;;10.80;99.90;;;;;;7341433;19;108322;-90
2024/01/25 00:12:11;;;;;;;;;;;10.80;99.90;;;;;;7338457;19;110207;-90
2024/01/25 00:14:38;;;;;;;;;;;10.80;99.90;;;;;;7336293;19;108911;-90
2024/01/25 00:17:05;;;;;;;;;;;10.80;99.90;;;;;;7335863;19;108873;-90
2024/01/25 00:19:34;;;;;;;;;;;10.80;99.90;;;;;;7334428;19;111523;-90
2024/01/25 00:22:01;;;;;;;;;;;10.80;99.90;;;;;;7335947;19;108813;-90
2024/01/25 00:24:28;;;;;;;;;;;10.70;99.90;;;;;;7337831;19;109650;-90
2024/01/25 00:26:55;;;;;;;;;;;10.70;99.90;;;;;;7334569;19;111554;-89
2024/01/25 00:29:23;;;;;;;;;;;10.70;99.90;;;;;;7340296;19;108730;-90
2024/01/25 00:31:50;;;;;;;;;;;10.70;99.90;;;;;;7335924;19;111874;-89
2024/01/25 00:43:47;;;;;;;;;;;10.70;99.90;;;;;;7333611;19;109392;-90
2024/01/25 00:46:14;;;;;;;;;;;10.60;99.90;;;;;;7328955;19;111577;-89
2024/01/25 00:48:42;;;;;;;;;;;10.60;99.90;;;;;;7327634;19;112392;-90
2024/01/25 00:51:18;;;;;;;;;;;10.60;99.90;;;;;;7328226;19;110127;-90
2024/01/25 00:53:45;;;;;;;;;;;10.60;99.90;;;;;;7333391;19;109156;-90
2024/01/25 00:56:15;;;;;;;;;;;10.50;99.90;;;;;;7332081;19;108878;-90
2024/01/25 00:58:42;;;;;;;;;;;10.50;99.90;;;;;;7337012;19;111562;-90
2024/01/25 01:01:10;;;;;;;;;;;10.40;99.90;;;;;;7341082;19;113459;-90
2024/01/25 01:03:38;;;;;;;;;;;10.40;99.90;;;;;;7339569;19;108624;-89
2024/01/25 01:06:08;;;;;;;;;;;10.40;99.90;;;;;;7341693;19;109354;-90
2024/01/25 01:08:36;;;;;;;;;;;10.30;99.90;;;;;;7342401;19;110692;-90
2024/01/25 01:11:03;;;;;;;;;;;10.30;99.90;;;;;;7339992;19;108878;-90
2024/01/25 01:13:32;;;;;;;;;;;10.30;99.90;;;;;;7342966;19;110030;-91
2024/01/25 01:15:59;;;;;;;;;;;10.20;99.90;;;;;;7346236;19;112670;-90
2024/01/25 01:18:26;;;;;;;;;;;10.20;99.90;;;;;;7342348;19;112362;-90
2024/01/25 01:20:54;;;;;;;;;;;10.10;99.90;;;;;;7341856;19;112740;-90
2024/01/25 01:23:21;;;;;;;;;;;10.10;99.90;;;;;;7343331;19;108341;-89
2024/01/25 01:25:48;;;;;;;;;;;10.10;99.90;;;;;;7341471;19;108985;-90
2024/01/25 01:28:15;;;;;;;;;;;10.00;99.90;;;;;;7342373;19;112733;-90
2024/01/25 01:30:43;;;;;;;;;;;10.00;99.90;;;;;;7339203;19;108829;-90
2024/01/25 01:33:10;;;;;;;;;;;9.90;99.90;;;;;;7341589;19;111757;-90
2024/01/25 01:35:37;;;;;;;;;;;9.90;99.90;;;;;;7341791;19;111267;-89
2024/01/25 01:38:05;;;;;;;;;;;9.90;99.90;;;;;;7351061;19;108331;-90
2024/01/25 01:40:32;;;;;;;;;;;9.80;99.90;;;;;;7341979;19;112961;-89
2024/01/25 01:43:00;;;;;;;;;;;9.90;99.90;;;;;;7340130;19;108763;-90
2024/01/25 01:45:28;;;;;;;;;;;9.80;99.90;;;;;;7346695;19;109049;-90
2024/01/25 01:47:56;;;;;;;;;;;9.80;99.90;;;;;;7341756;19;113082;-90
2024/01/25 01:50:24;;;;;;;;;;;9.70;99.90;;;;;;7340554;19;108546;-89
2024/01/25 01:52:53;;;;;;;;;;;9.70;99.90;;;;;;7343770;19;112896;-90
2024/01/25 01:55:21;;;;;;;;;;;9.60;99.90;;;;;;7342559;19;112958;-90
2024/01/25 01:57:48;;;;;;;;;;;9.60;99.90;;;;;;7346657;19;108515;-90
2024/01/25 02:00:19;;;;;;;;;;;9.50;99.90;;;;;;7353911;19;110023;-90
2024/01/25 02:02:46;;;;;;;;;;;9.50;99.90;;;;;;7347740;19;108831;-90
2024/01/25 02:05:14;;;;;;;;;;;9.50;99.90;;;;;;7342830;19;111726;-91
2024/01/25 02:07:42;;;;;;;;;;;9.40;99.90;;;;;;7342222;19;110383;-90
2024/01/25 02:10:13;;;;;;;;;;;9.40;99.90;;;;;;7339781;19;109031;-90
2024/01/25 02:12:40;;;;;;;;;;;9.40;99.90;;;;;;7339785;19;109325;-89
2024/01/25 02:15:07;;;;;;;;;;;9.30;99.90;;;;;;7372892;19;110424;-90
2024/01/25 02:17:35;;;;;;;;;;;9.30;99.90;;;;;;7374446;19;108048;-89
2024/01/25 02:20:03;;;;;;;;;;;9.30;99.90;;;;;;7374873;19;110770;-90
2024/01/25 02:22:30;;;;;;;;;;;9.20;99.90;;;;;;7376506;19;109610;-89
2024/01/25 02:24:57;;;;;;;;;;;9.20;99.90;;;;;;7374031;19;108335;-90
2024/01/25 02:27:27;;;;;;;;;;;9.20;99.90;;;;;;7372576;19;112714;-91
2024/01/25 02:29:54;;;;;;;;;;;9.10;99.90;;;;;;7371395;19;109543;-91
2024/01/25 02:32:24;;;;;;;;;;;9.10;99.90;;;;;;7372946;19;108241;-90
2024/01/25 02:34:51;;;;;;;;;;;9.10;99.90;;;;;;7372423;19;112853;-90
2024/01/25 02:37:18;;;;;;;;;;;9.00;99.90;;;;;;7375581;19;109180;-90
2024/01/25 02:39:46;;;;;;;;;;;8.90;99.90;;;;;;7372344;19;111582;-90
2024/01/25 03:15:11;;;;;;;;;;;8.20;99.90;;;;;;7347918;19;108350;-90
2024/01/25 03:17:38;;;;;;;;;;;8.20;99.90;;;;;;7337465;19;110446;-90
2024/01/25 03:20:06;;;;;;;;;;;8.10;99.90;;;;;;7334956;19;109529;-90
2024/01/25 03:22:33;;;;;;;;;;;8.00;99.90;;;;;;7336956;19;110546;-90
2024/01/25 03:25:00;;;;;;;;;;;8.00;99.90;;;;;;7335496;19;110578;-90
2024/01/25 03:27:27;;;;;;;;;;;7.90;99.90;;;;;;7336343;19;108579;-89
2024/01/25 03:29:54;;;;;;;;;;;7.90;99.90;;;;;;7344720;19;111011;-90
2024/01/25 03:32:22;;;;;;;;;;;7.80;99.90;;;;;;7335888;19;108665;-90
2024/01/25 03:34:49;;;;;;;;;;;7.80;99.90;;;;;;7337826;19;109640;-90
2024/01/25 03:37:17;;;;;;;;;;;7.70;99.90;;;;;;7332626;19;110136;-90
2024/01/25 03:39:44;;;;;;;;;;;7.60;99.90;;;;;;7335776;19;108884;-91
2024/01/25 03:42:11;;;;;;;;;;;7.50;99.90;;;;;;7342153;19;109772;-90
2024/01/25 03:44:42;;;;;;;;;;;7.50;99.90;;;;;;7337004;19;111520;-90
2024/01/25 03:47:09;;;;;;;;;;;7.40;99.90;;;;;;7338358;19;109476;-90
2024/01/25 03:49:36;;;;;;;;;;;7.30;99.90;;;;;;7337530;19;111942;-90
2024/01/25 03:52:04;;;;;;;;;;;7.20;99.90;;;;;;7340217;19;112864;-89
2024/01/25 03:54:32;;;;;;;;;;;7.20;99.90;;;;;;7336752;19;112586;-90
2024/01/25 03:56:59;;;;;;;;;;;7.20;99.90;;;;;;7334506;19;113170;-89
2024/01/25 03:59:26;;;;;;;;;;;7.20;99.90;;;;;;7340403;19;108850;-89
2024/01/25 04:01:53;;;;;;;;;;;7.20;99.90;;;;;;7335761;19;110690;-90
2024/01/25 04:04:21;;;;;;;;;;;7.30;99.90;;;;;;7337972;19;110662;-90
2024/01/25 04:06:48;;;;;;;;;;;7.30;99.90;;;;;;7337268;19;108800;-89
2024/01/25 04:09:16;;;;;;;;;;;7.20;99.90;;;;;;7334710;19;112023;-89
2024/01/25 04:11:43;;;;;;;;;;;7.20;99.90;;;;;;7334199;19;113362;-90
2024/01/25 04:14:10;;;;;;;;;;;7.20;99.90;;;;;;7341390;19;110254;-90
2024/01/25 04:16:37;;;;;;;;;;;7.10;99.90;;;;;;7335709;19;111751;-90
2024/01/25 04:19:07;;;;;;;;;;;7.10;99.90;;;;;;7345927;19;108920;-90
2024/01/25 04:21:41;;;;;;;;;;;7.10;99.90;;;;;;7354375;19;106547;-90
2024/01/25 04:24:08;;;;;;;;;;;7.00;99.90;;;;;;7335843;19;110347;-89
2024/01/25 04:26:35;;;;;;;;;;;7.00;99.90;;;;;;7334518;19;108726;-90
2024/01/25 04:29:03;;;;;;;;;;;7.00;99.90;;;;;;7336623;19;109094;-90
2024/01/25 04:31:33;;;;;;;;;;;6.90;99.90;;;;;;7333248;19;109439;-90
2024/01/25 04:34:00;;;;;;;;;;;6.80;99.90;;;;;;7336959;19;109185;-90
2024/01/25 04:36:28;;;;;;;;;;;6.80;99.90;;;;;;7342695;19;109280;-89
2024/01/25 04:38:55;;;;;;;;;;;6.70;99.90;;;;;;7333689;19;109506;-90
2024/01/25 04:41:23;;;;;;;;;;;6.70;99.90;;;;;;7335185;19;111192;-89
2024/01/25 04:43:50;;;;;;;;;;;6.70;99.90;;;;;;7336389;19;110678;-90
2024/01/25 04:46:17;;;;;;;;;;;6.70;99.90;;;;;;7338196;19;108439;-89
2024/01/25 04:48:45;;;;;;;;;;;6.60;99.90;;;;;;7337575;19;111228;-90
2024/01/25 04:51:16;;;;;;;;;;;6.60;99.90;;;;;;7330576;19;110606;-90
2024/01/25 04:53:43;;;;;;;;;;;6.60;99.90;;;;;;7334901;19;108629;-90
2024/01/25 04:56:10;;;;;;;;;;;6.50;99.90;;;;;;7338443;19;111482;-89
2024/01/25 04:58:37;;;;;;;;;;;6.50;99.90;;;;;;7334655;19;110843;-89
2024/01/25 05:01:06;;;;;;;;;;;6.50;99.90;;;;;;7333698;19;111611;-89
2024/01/25 05:03:34;;;;;;;;;;;6.50;99.90;;;;;;7333809;19;112682;-90
2024/01/25 05:06:01;;;;;;;;;;;6.40;99.90;;;;;;7338675;19;108531;-89
2024/01/25 05:08:28;;;;;;;;;;;6.30;99.90;;;;;;7334866;19;112597;-90
2024/01/25 05:10:56;;;;;;;;;;;6.30;99.90;;;;;;7332702;19;112318;-90
2024/01/25 05:13:24;;;;;;;;;;;6.30;99.90;;;;;;7335257;19;110613;-90
2024/01/25 05:15:51;;;;;;;;;;;6.30;99.90;;;;;;7333236;19;109270;-90
2024/01/25 05:18:18;;;;;;;;;;;6.30;99.90;;;;;;7341775;19;110811;-90
2024/01/25 05:20:46;;;;;;;;;;;6.20;99.90;;;;;;7337047;19;108771;-89
2024/01/25 05:23:13;;;;;;;;;;;6.00;99.90;;;;;;7331169;19;111734;-90
2024/01/25 05:25:40;;;;;;;;;;;6.00;99.90;;;;;;7335663;19;108279;-89
2024/01/25 05:28:07;;;;;;;;;;;6.00;99.90;;;;;;7331808;19;111220;-89
2024/01/25 05:30:34;;;;;;;;;;;6.10;99.90;;;;;;7333118;19;113164;-89
2024/01/25 05:33:02;;;;;;;;;;;6.10;99.90;;;;;;7333339;19;108428;-89
2024/01/25 05:35:29;;;;;;;;;;;6.10;99.90;;;;;;7335020;19;112324;-89
2024/01/25 05:37:56;;;;;;;;;;;6.00;99.90;;;;;;7334757;19;112572;-89
2024/01/25 05:40:24;;;;;;;;;;;5.90;99.90;;;;;;7338273;19;108457;-89
2024/01/25 05:42:51;;;;;;;;;;;5.90;99.90;;;;;;7335791;19;112963;-89
2024/01/25 05:45:21;;;;;;;;;;;5.90;99.90;;;;;;7341605;19;108965;-89
2024/01/25 05:47:51;;;;;;;;;;;5.90;99.90;;;;;;7341449;19;109588;-89
2024/01/25 05:50:18;;;;;;;;;;;5.90;99.90;;;;;;7338588;19;110673;-89
2024/01/25 05:52:45;;;;;;;;;;;5.70;99.90;;;;;;7341291;19;108593;-89
2024/01/25 05:55:14;;;;;;;;;;;5.60;99.90;;;;;;7342947;19;111136;-89
2024/01/25 05:57:42;;;;;;;;;;;5.70;99.90;;;;;;7337594;19;113048;-90
2024/01/25 06:00:12;;;;;;;;;;;5.70;99.90;;;;;;7340992;19;110770;-90
2024/01/25 06:02:39;;;;;;;;;;;5.60;99.90;;;;;;7345735;19;108549;-91
2024/01/25 06:05:07;;;;;;;;;;;5.60;99.90;;;;;;7338030;19;108699;-90
2024/01/25 06:07:35;;;;;;;;;;;5.60;99.90;;;;;;7340306;19;111793;-90
2024/01/25 06:10:03;;;;;;;;;;;5.60;99.90;;;;;;7341674;19;109138;-90
2024/01/25 06:12:30;;;;;;;;;;;5.60;99.90;;;;;;7341454;19;109430;-91
2024/01/25 06:14:58;;;;;;;;;;;5.60;99.90;;;;;;7339939;19;111716;-90
2024/01/25 06:17:25;;;;;;;;;;;5.60;99.90;;;;;;7340660;19;112888;-89
2024/01/25 06:19:52;;;;;;;;;;;5.60;99.90;;;;;;7341349;19;108406;-91
2024/01/25 06:22:19;;;;;;;;;;;5.60;99.90;;;;;;7337470;19;111629;-90
2024/01/25 06:24:47;;;;;;;;;;;5.60;99.90;;;;;;7342682;19;112562;-91
2024/01/25 06:27:14;;;;;;;;;;;5.60;99.90;;;;;;7341969;19;109491;-90
2024/01/25 06:29:41;;;;;;;;;;;5.60;99.90;;;;;;7340565;19;113030;-90
2024/01/25 06:32:10;;;;;;;;;;;5.60;99.90;;;;;;7342972;19;108653;-91
2024/01/25 06:34:44;;;;;;;;;;;5.60;99.90;;;;;;7340592;19;110179;-90
2024/01/25 06:37:15;;;;;;;;;;;5.60;99.90;;;;;;7340178;19;112829;-90
2024/01/25 06:39:42;;;;;;;;;;;5.50;99.90;;;;;;7347181;19;108568;-90
2024/01/25 06:42:12;;;;;;;;;;;5.50;99.90;;;;;;7349635;19;112056;-90
2024/01/25 06:44:46;;;;;;;;;;;5.50;99.90;;;;;;7346489;19;112137;-91
2024/01/25 06:47:13;;;;;;;;;;;5.50;99.90;;;;;;7351358;19;109090;-90
2024/01/25 06:49:40;;;;;;;;;;;5.50;99.90;;;;;;7343256;19;110681;-90
2024/01/25 07:40:03;;;;;;;;;;;5.40;99.90;;;;;;7349154;19;107977;-93
2024/01/25 07:42:30;;;;;;;;;;;5.40;99.90;;;;;;7364093;19;110929;-93
2024/01/25 07:44:58;;;;;;;;;;;5.40;99.90;;;;;;7364736;19;109462;-92
2024/01/25 07:47:25;;;;;;;;;;;5.50;99.90;;;;;;7366667;19;111345;-93
2024/01/25 07:49:52;;;;;;;;;;;5.50;99.90;;;;;;7366885;19;109188;-93
2024/01/25 07:52:19;;;;;;;;;;;5.50;99.90;;;;;;7364702;19;108309;-93
2024/01/25 07:54:48;;;;;;;;;;;5.50;99.90;;;;;;7365505;19;109206;-93
2024/01/25 07:57:15;;;;;;;;;;;5.50;99.90;;;;;;7369864;19;111876;-93
2024/01/25 07:59:42;;;;;;;;;;;5.50;99.90;;;;;;7366661;19;108227;-94
2024/01/25 08:02:09;;;;;;;;;;;5.60;99.90;;;;;;7367361;19;108865;-93
2024/01/25 08:04:47;;;;;;;;;;;5.60;99.90;;;;;;7368022;19;108952;-93
2024/01/25 08:07:15;;;;;;;;;;;5.70;99.90;;;;;;7364851;19;110512;-93
2024/01/25 08:09:42;;;;;;;;;;;5.70;99.90;;;;;;7361025;19;109671;-93
2024/01/25 08:12:10;;;;;;;;;;;5.70;99.90;;;;;;7368284;19;107963;-92
2024/01/25 08:14:37;;;;;;;;;;;5.80;99.90;;;;;;7365999;19;112664;-92
2024/01/25 08:17:04;;;;;;;;;;;5.80;99.90;;;;;;7364116;19;111685;-92
2024/01/25 08:19:31;;;;;;;;;;;5.90;99.90;;;;;;7369795;19;109035;-93
2024/01/25 08:21:58;;;;;;;;;;;5.90;99.90;;;;;;7366005;19;111208;-94
2024/01/25 08:24:26;;;;;;;;;;;6.00;99.90;;;;;;7362494;19;108474;-94
2024/01/25 08:26:53;;;;;;;;;;;6.00;99.90;;;;;;7365139;19;111639;-93
2024/01/25 08:29:21;;;;;;;;;;;6.10;99.90;;;;;;7363040;19;111704;-92
2024/01/25 08:31:48;;;;;;;;;;;6.10;99.90;;;;;;7365348;19;108899;-92
2024/01/25 08:34:15;;;;;;;;;;;6.20;99.90;;;;;;7366695;19;108346;-93
2024/01/25 08:36:42;;;;;;;;;;;6.20;99.90;;;;;;7364272;19;109928;-93
2024/01/25 08:39:12;;;;;;;;;;;6.30;99.90;;;;;;7364102;19;108097;-93
2024/01/25 08:41:42;;;;;;;;;;;6.30;99.90;;;;;;7369447;19;110754;-93
2024/01/25 08:44:09;;;;;;;;;;;6.40;99.90;;;;;;7365662;19;109067;-92
2024/01/25 08:46:36;;;;;;;;;;;6.50;99.90;;;;;;7368198;19;108321;-92
2024/01/25 08:49:08;;;;;;;;;;;6.50;99.90;;;;;;7364615;19;109378;-93
2024/01/25 08:51:36;;;;;;;;;;;6.60;99.90;;;;;;7363818;19;108438;-93
2024/01/25 08:54:03;;;;;;;;;;;6.60;99.90;;;;;;7363118;19;107980;-93
2024/01/25 08:56:30;;;;;;;;;;;6.70;99.90;;;;;;7365093;19;108998;-92
2024/01/25 08:58:57;;;;;;;;;;;6.70;99.90;;;;;;7366786;19;108028;-93
2024/01/25 09:01:24;;;;;;;;;;;6.80;99.90;;;;;;7371237;19;107957;-93
2024/01/25 09:03:52;;;;;;;;;;;6.80;99.90;;;;;;7366050;19;109329;-94
2024/01/25 09:06:19;;;;;;;;;;;6.90;99.90;;;;;;7361069;19;108042;-93
2024/01/25 09:08:47;;;;;;;;;;;7.00;99.90;;;;;;7355182;19;109200;-93
2024/01/25 09:11:14;;;;;;;;;;;7.10;99.90;;;;;;7360062;19;108533;-94
2024/01/25 09:13:45;;;;;;;;;;;7.10;99.90;;;;;;7357368;19;111926;-93
2024/01/25 09:16:13;;;;;;;;;;;7.20;99.90;;;;;;7353796;19;111420;-93
2024/01/25 09:18:40;;;;;;;;;;;7.30;99.90;;;;;;7354408;19;108494;-94
2024/01/25 09:21:08;;;;;;;;;;;7.40;99.90;;;;;;7359984;19;109624;-92
2024/01/25 09:23:35;;;;;;;;;;;7.50;99.90;;;;;;7365114;19;109424;-93
2024/01/25 09:26:08;;;;;;;;;;;7.50;99.90;;;;;;7360420;19;108298;-93
2024/01/25 09:28:56;;;;;;;;;;;7.60;99.90;;;;;;7357178;19;108459;-92
2024/01/25 09:31:24;;;;;;;;;;;7.70;99.90;;;;;;7356784;19;108098;-93
2024/01/25 09:33:51;;;;;;;;;;;7.80;99.90;;;;;;7364324;19;108780;-95
2024/01/25 09:36:19;;;;;;;;;;;7.90;99.90;;;;;;7369150;19;110197;-94
2024/01/25 09:38:46;;;;;;;;;;;8.00;99.90;;;;;;7365321;19;108664;-94
2024/01/25 09:41:14;;;;;;;;;;;8.00;99.90;;;;;;7365778;19;109521;-95
2024/01/25 09:43:41;;;;;;;;;;;8.10;99.90;;;;;;7368008;19;110838;-94
2024/01/25 09:46:13;;;;;;;;;;;8.20;99.90;;;;;;7374024;19;108402;-95
2024/01/25 09:48:43;;;;;;;;;;;8.20;99.90;;;;;;7366481;19;111662;-93
2024/01/25 09:51:11;;;;;;;;;;;8.30;99.90;;;;;;7369704;19;108432;-94
2024/01/25 09:53:40;;;;;;;;;;;8.30;99.90;;;;;;7365790;19;110115;-94
2024/01/25 09:56:08;;;;;;;;;;;8.40;99.90;;;;;;7362119;19;110841;-94
2024/01/25 09:58:35;;;;;;;;;;;8.50;99.90;;;;;;7365739;19;108033;-94
2024/01/25 10:01:03;;;;;;;;;;;8.50;99.90;;;;;;7366598;19;108428;-92
2024/01/25 10:03:30;;;;;;;;;;;8.60;99.90;;;;;;7366588;19;109367;-93
2024/01/25 10:05:59;;;;;;;;;;;8.60;99.90;;;;;;7365724;19;108955;-93
2024/01/25 10:08:29;;;;;;;;;;;8.70;99.90;;;;;;7370993;19;108422;-91
2024/01/25 10:10:56;;;;;;;;;;;8.70;99.90;;;;;;7364047;19;108567;-93
2024/01/25 10:13:23;;;;;;;;;;;8.80;99.90;;;;;;7352257;19;111789;-93
2024/01/25 10:15:50;;;;;;;;;;;8.80;99.90;;;;;;7341517;19;110688;-92
2024/01/25 10:18:17;;;;;;;;;;;8.80;99.90;;;;;;7343484;19;108528;-91
2024/01/25 10:20:55;;;;;;;;;;;8.80;99.90;;;;;;7341816;19;109198;-95
2024/01/25 10:23:25;;;;;;;;;;;8.90;99.90;;;;;;7341982;19;110681;-92
2024/01/25 10:25:53;;;;;;;;;;;9.00;99.90;;;;;;7340986;19;108822;-92
2024/01/25 10:28:20;;;;;;;;;;;9.00;99.90;;;;;;7343098;19;108843;-92
2024/01/25 10:30:47;;;;;;;;;;;9.00;99.90;;;;;;7343698;19;112630;-92
2024/01/25 10:33:15;;;;;;;;;;;9.00;99.90;;;;;;7342857;19;111960;-91
2024/01/25 10:35:45;;;;;;;;;;;9.10;99.90;;;;;;7341259;19;111591;-93
2024/01/25 10:38:13;;;;;;;;;;;9.10;99.90;;;;;;7344111;19;108204;-92
2024/01/25 10:40:40;;;;;;;;;;;9.20;99.90;;;;;;7345908;19;109356;-93
2024/01/25 10:43:09;;;;;;;;;;;9.20;99.90;;;;;;7340838;19;112129;-92
2024/01/25 10:45:39;;;;;;;;;;;9.20;99.90;;;;;;7340471;19;108481;-92
2024/01/25 10:48:07;;;;;;;;;;;9.20;99.90;;;;;;7343478;19;109431;-93
2024/01/25 10:50:34;;;;;;;;;;;9.20;99.90;;;;;;7344430;19;109305;-93
2024/01/25 10:53:02;;;;;;;;;;;9.30;99.90;;;;;;7345595;19;109897;-92
2024/01/25 10:55:30;;;;;;;;;;;9.30;99.90;;;;;;7343787;19;110839;-93
2024/01/25 10:57:57;;;;;;;;;;;9.40;99.90;;;;;;7340962;19;108673;-93
2024/01/25 11:00:24;;;;;;;;;;;9.30;99.90;;;;;;7345020;19;109626;-92
2024/01/25 11:02:52;;;;;;;;;;;9.40;99.90;;;;;;7342721;19;109901;-93
2024/01/25 11:05:20;;;;;;;;;;;9.30;99.90;;;;;;7350302;19;108365;-92
2024/01/25 11:07:49;;;;;;;;;;;9.30;99.90;;;;;;7348012;19;109243;-92
2024/01/25 11:10:17;;;;;;;;;;;9.30;99.90;;;;;;7347377;19;109914;-92
2024/01/25 11:13:05;;;;;;;;;;;9.30;99.90;;;;;;7346749;19;108922;-93
2024/01/25 11:15:33;;;;;;;;;;;9.30;99.90;;;;;;7340472;19;109392;-93
2024/01/25 11:18:01;;;;;;;;;;;9.40;99.90;;;;;;7341216;19;109354;-93
2024/01/25 11:20:29;;;;;;;;;;;9.40;99.90;;;;;;7338505;19;110093;-92
2024/01/25 11:23:04;;;;;;;;;;;9.50;99.90;;;;;;7340321;19;110463;-92
2024/01/25 11:25:32;;;;;;;;;;;9.60;99.90;;;;;;7347073;19;109034;-92
2024/01/25 11:28:03;;;;;;;;;;;9.60;99.90;;;;;;7347068;19;111814;-93
2024/01/25 11:30:33;;;;;;;;;;;9.60;99.90;;;;;;7347070;19;112621;-89
2024/01/25 11:33:04;;;;;;;;;;;9.60;99.90;;;;;;7337855;19;109072;-92
2024/01/25 11:35:31;;;;;;;;;;;9.60;99.90;;;;;;7348392;19;109330;-93
2024/01/25 11:37:59;;;;;;;;;;;9.50;99.90;;;;;;7341637;19;108872;-94
2024/01/25 11:40:28;;;;;;;;;;;9.50;99.90;;;;;;7343585;19;108846;-93
2024/01/25 11:42:56;;;;;;;;;;;9.50;99.90;;;;;;7351003;19;112658;-93
2024/01/25 11:45:23;;;;;;;;;;;9.40;99.90;;;;;;7374948;19;109193;-93
2024/01/25 11:47:58;;;;;;;;;;;9.50;99.90;;;;;;7372357;19;108512;-93
2024/01/25 11:50:26;;;;;;;;;;;9.60;99.90;;;;;;7372164;19;109118;-93
2024/01/25 11:52:53;;;;;;;;;;;9.60;99.90;;;;;;7378084;19;107779;-93
2024/01/25 11:55:20;;;;;;;;;;;9.60;99.90;;;;;;7376992;19;108246;-94
2024/01/25 11:57:48;;;;;;;;;;;9.60;99.90;;;;;;7379730;19;109186;-90
2024/01/25 12:00:18;;;;;;;;;;;9.60;99.90;;;;;;7377179;19;107929;-91
2024/01/25 12:02:49;;;;;;;;;;;9.70;99.90;;;;;;7371805;19;111143;-91
2024/01/25 12:05:16;;;;;;;;;;;9.70;99.90;;;;;;7374023;19;108405;-91
2024/01/25 12:07:43;;;;;;;;;;;9.70;99.90;;;;;;7373006;19;110173;-91
2024/01/25 12:10:15;;;;;;;;;;;9.80;99.90;;;;;;7372583;19;111313;-92
2024/01/25 12:12:43;;;;;;;;;;;9.80;99.90;;;;;;7372327;19;108057;-91
2024/01/25 12:15:13;;;;;;;;;;;9.80;99.90;;;;;;7372225;19;108893;-91
2024/01/25 12:17:42;;;;;;;;;;;9.80;99.90;;;;;;7357784;19;110497;-92
2024/01/25 12:20:11;;;;;;;;;;;9.70;99.90;;;;;;7352754;19;108168;-93
2024/01/25 12:22:39;;;;;;;;;;;9.70;99.90;;;;;;7348359;19;111498;-93
2024/01/25 12:25:09;;;;;;;;;;;9.70;99.90;;;;;;7348091;19;108695;-92
2024/01/25 12:27:40;;;;;;;;;;;9.80;99.90;;;;;;7344778;19;111480;-95
2024/01/25 12:30:10;;;;;;;;;;;9.70;99.90;;;;;;7345232;19;110538;-94
2024/01/25 12:32:37;;;;;;;;;;;9.80;99.90;;;;;;7341921;19;109193;-93
2024/01/25 12:35:05;;;;;;;;;;;9.80;99.90;;;;;;7343266;19;111540;-93
2024/01/25 12:37:32;;;;;;;;;;;9.90;99.90;;;;;;7342219;19;109569;-94
2024/01/25 12:40:00;;;;;;;;;;;9.90;99.90;;;;;;7342243;19;108439;-93
2024/01/25 12:42:27;;;;;;;;;;;9.90;99.90;;;;;;7343616;19;109336;-94
2024/01/25 12:44:55;;;;;;;;;;;9.90;99.90;;;;;;7344293;19;108293;-93
2024/01/25 12:47:22;;;;;;;;;;;9.90;99.90;;;;;;7342170;19;109668;-94
2024/01/25 12:49:49;;;;;;;;;;;10.00;99.90;;;;;;7343694;19;110544;-93
2024/01/25 12:52:17;;;;;;;;;;;10.10;99.90;;;;;;7341724;19;108758;-93
2024/01/25 12:54:44;;;;;;;;;;;10.00;99.90;;;;;;7346578;19;108622;-93
2024/01/25 12:57:12;;;;;;;;;;;10.00;99.90;;;;;;7349155;19;111540;-93
2024/01/25 12:59:40;;;;;;;;;;;10.10;99.90;;;;;;7348800;19;108793;-92
2024/01/25 13:02:08;;;;;;;;;;;10.10;99.90;;;;;;7348760;19;111691;-92
2024/01/25 13:04:39;;;;;;;;;;;10.10;99.90;;;;;;7356286;19;109072;-92
2024/01/25 13:07:06;;;;;;;;;;;10.10;99.90;;;;;;7349652;19;109245;-92
2024/01/25 13:09:36;;;;;;;;;;;10.10;99.90;;;;;;7349791;19;108751;-92
2024/01/25 13:12:03;;;;;;;;;;;10.10;99.90;;;;;;7348476;19;108810;-93
2024/01/25 13:14:31;;;;;;;;;;;10.10;99.90;;;;;;7349586;19;108660;-93
2024/01/25 13:16:58;;;;;;;;;;;10.10;99.90;;;;;;7350639;19;108265;-92
2024/01/25 13:19:26;;;;;;;;;;;10.20;99.90;;;;;;7355179;19;108879;-93
2024/01/25 13:21:54;;;;;;;;;;;10.20;99.90;;;;;;7354565;19;109023;-92
2024/01/25 13:24:21;;;;;;;;;;;10.20;99.90;;;;;;7357062;19;110269;-92
2024/01/25 13:26:49;;;;;;;;;;;10.20;99.90;;;;;;7353588;19;108496;-92
2024/01/25 13:29:16;;;;;;;;;;;10.20;99.90;;;;;;7352768;19;110242;-93
2024/01/25 13:31:44;;;;;;;;;;;10.20;99.90;;;;;;7348150;19;109860;-93
2024/01/25 13:34:11;;;;;;;;;;;10.20;99.90;;;;;;7346264;19;109926;-93
2024/01/25 13:36:40;;;;;;;;;;;10.30;99.90;;;;;;7348399;19;113068;-93
2024/01/25 13:39:07;;;;;;;;;;;10.20;99.90;;;;;;7350495;19;108640;-94
2024/01/25 13:41:34;;;;;;;;;;;10.20;99.90;;;;;;7354781;19;109043;-93
2024/01/25 13:44:01;;;;;;;;;;;10.20;99.90;;;;;;7352416;19;111176;-92
2024/01/25 13:46:28;;;;;;;;;;;10.30;99.90;;;;;;7356680;19;108585;-93
2024/01/25 13:48:56;;;;;;;;;;;10.30;99.90;;;;;;7349609;19;112791;-93
2024/01/25 13:51:23;;;;;;;;;;;10.30;99.90;;;;;;7345935;19;108777;-94
2024/01/25 13:53:50;;;;;;;;;;;10.30;99.90;;;;;;7345834;19;109364;-93
2024/01/25 13:56:17;;;;;;;;;;;10.30;99.90;;;;;;7344604;19;109628;-93
2024/01/25 13:58:45;;;;;;;;;;;10.30;99.90;;;;;;7344257;19;108456;-92
2024/01/25 14:01:12;;;;;;;;;;;10.30;99.90;;;;;;7345275;19;108904;-93
2024/01/25 14:03:42;;;;;;;;;;;10.30;99.90;;;;;;7344260;19;110211;-94
2024/01/25 14:06:11;;;;;;;;;;;10.30;99.90;;;;;;7347677;19;108423;-93
2024/01/25 14:08:39;;;;;;;;;;;10.30;99.90;;;;;;7352320;19;110591;-93
2024/01/25 14:11:06;;;;;;;;;;;10.30;99.90;;;;;;7348791;19;109070;-94
2024/01/25 14:13:34;;;;;;;;;;;10.40;99.90;;;;;;7346641;19;110256;-93
2024/01/25 14:16:01;;;;;;;;;;;10.40;99.90;;;;;;7341711;19;112006;-94
2024/01/25 14:18:32;;;;;;;;;;;10.40;99.90;;;;;;7343325;19;108419;-93
2024/01/25 14:21:00;;;;;;;;;;;10.40;99.90;;;;;;7344340;19;109148;-94
2024/01/25 14:23:27;;;;;;;;;;;10.50;99.90;;;;;;7345237;19;112702;-95
2024/01/25 14:25:55;;;;;;;;;;;10.50;99.90;;;;;;7346463;19;108889;-95
2024/01/25 14:28:22;;;;;;;;;;;10.60;99.90;;;;;;7346212;19;110435;-96
2024/01/25 14:30:49;;;;;;;;;;;10.60;99.90;;;;;;7352338;19;111880;-96
2024/01/25 14:33:17;;;;;;;;;;;10.60;99.90;;;;;;7346514;19;111918;-96
2024/01/25 14:35:44;;;;;;;;;;;10.70;99.90;;;;;;7348220;19;111180;-96
2024/01/25 14:38:11;;;;;;;;;;;10.60;99.90;;;;;;7346906;19;108296;-95
2024/01/25 14:40:39;;;;;;;;;;;10.60;99.90;;;;;;7343949;19;111120;-93
2024/01/25 14:43:23;;;;;;;;;;;10.60;99.90;;;;;;7342629;19;112242;-94
2024/01/25 14:45:52;;;;;;;;;;;10.60;99.90;;;;;;7344035;19;108469;-94
2024/01/25 14:48:19;;;;;;;;;;;10.60;99.90;;;;;;7347166;19;111509;-94
2024/01/25 14:50:47;;;;;;;;;;;10.60;99.90;;;;;;7342753;19;109095;-92
2024/01/25 14:53:15;;;;;;;;;;;10.60;99.90;;;;;;7351708;19;108372;-93
2024/01/25 14:55:42;;;;;;;;;;;10.60;99.90;;;;;;7342211;19;112632;-94
2024/01/25 14:58:10;;;;;;;;;;;10.60;99.90;;;;;;7343450;19;108068;-94
2024/01/25 15:00:37;;;;;;;;;;;10.70;99.90;;;;;;7342080;19;109194;-94
2024/01/25 15:03:05;;;;;;;;;;;10.70;99.90;;;;;;7344652;19;111119;-95
2024/01/25 15:05:32;;;;;;;;;;;10.70;99.90;;;;;;7344200;19;108736;-94
2024/01/25 15:07:59;;;;;;;;;;;10.80;99.90;;;;;;7345941;19;109431;-93
2024/01/25 15:10:29;;;;;;;;;;;10.80;99.90;;;;;;7343394;19;110520;-94
2024/01/25 15:12:59;;;;;;;;;;;10.80;99.90;;;;;;7343865;19;108515;-95
2024/01/25 15:15:28;;;;;;;;;;;10.80;99.90;;;;;;7348679;19;112242;-94
2024/01/25 15:17:55;;;;;;;;;;;10.80;99.90;;;;;;7343371;19;108807;-94
2024/01/25 15:20:23;;;;;;;;;;;10.80;99.90;;;;;;7344853;19;109588;-94
2024/01/25 15:22:51;;;;;;;;;;;10.80;99.90;;;;;;7341553;19;111549;-94
2024/01/25 15:25:18;;;;;;;;;;;10.80;99.90;;;;;;7343187;19;108768;-94
2024/01/25 15:27:45;;;;;;;;;;;10.80;99.90;;;;;;7342474;19;111549;-94
2024/01/25 15:30:12;;;;;;;;;;;10.90;99.90;;;;;;7343093;19;112500;-95
2024/01/25 15:32:42;;;;;;;;;;;10.90;99.90;;;;;;7342150;19;108564;-94
2024/01/25 15:35:09;;;;;;;;;;;10.90;99.90;;;;;;7346313;19;111548;-94
2024/01/25 15:37:37;;;;;;;;;;;10.90;99.90;;;;;;7341678;19;109303;-94
2024/01/25 15:40:10;;;;;;;;;;;10.90;99.90;;;;;;7344469;19;109972;-94
2024/01/25 15:42:39;;;;;;;;;;;10.90;99.90;;;;;;7343159;19;110227;-93
2024/01/25 15:45:08;;;;;;;;;;;10.90;99.90;;;;;;7345160;19;108442;-94
2024/01/25 15:47:35;;;;;;;;;;;10.90;99.90;;;;;;7344329;19;109180;-94
2024/01/25 15:50:06;;;;;;;;;;;10.90;99.90;;;;;;7340017;19;111350;-94